sensor_id;sensor_type;location;lat;lon;timestamp;P1;durP1;ratioP1;P2;durP2;ratioP2
8948;SDS011;4509;51.522;9.910;2022-07-23T00:01:44;1.70;;;1.70;;
8948;SDS011;4509;51.522;9.910;2022-07-23T00:04:14;1.80;;;1.80;;
8948;SDS011;4509;51.522;9.910;2022-07-23T00:06:40;1.73;;;1.73;;
8948;SDS011;4509;51.522;9.910;2022-07-23T00:09:07;1.87;;;1.87;;
8948;SDS011;4509;51.522;9.910;2022-07-23T00:11:34;1.77;;;1.77;;
8948;SDS011;4509;51.522;9.910;2022-07-23T00:14:00;1.80;;;1.80;;
8948;SDS011;4509;51.522;9.910;2022-07-23T00:16:27;1.73;;;1.73;;
8948;SDS011;4509;51.522;9.910;2022-07-23T00:18:54;1.73;;;1.73;;
8948;SDS011;4509;51.522;9.910;2022-07-23T00:21:22;1.63;;;1.63;;
8948;SDS011;4509;51.522;9.910;2022-07-23T00:23:48;1.70;;;1.70;;
8948;SDS011;4509;51.522;9.910;2022-07-23T00:26:15;1.80;;;1.80;;
8948;SDS011;4509;51.522;9.910;2022-07-23T00:28:42;1.80;;;1.80;;
8948;SDS011;4509;51.522;9.910;2022-07-23T00:31:08;1.60;;;1.60;;
8948;SDS011;4509;51.522;9.910;2022-07-23T00:33:35;1.67;;;1.67;;
8948;SDS011;4509;51.522;9.910;2022-07-23T00:36:02;1.67;;;1.67;;
8948;SDS011;4509;51.522;9.910;2022-07-23T00:38:30;1.63;;;1.63;;
8948;SDS011;4509;51.522;9.910;2022-07-23T00:40:57;1.70;;;1.70;;
8948;SDS011;4509;51.522;9.910;2022-07-23T00:43:24;1.73;;;1.73;;
8948;SDS011;4509;51.522;9.910;2022-07-23T00:45:51;1.67;;;1.67;;
8948;SDS011;4509;51.522;9.910;2022-07-23T00:48:18;1.83;;;1.83;;
8948;SDS011;4509;51.522;9.910;2022-07-23T00:50:44;1.87;;;1.87;;
8948;SDS011;4509;51.522;9.910;2022-07-23T00:53:11;1.73;;;1.73;;
8948;SDS011;4509;51.522;9.910;2022-07-23T00:55:40;1.73;;;1.73;;
8948;SDS011;4509;51.522;9.910;2022-07-23T00:58:06;1.70;;;1.70;;
8948;SDS011;4509;51.522;9.910;2022-07-23T01:00:36;1.83;;;1.83;;
8948;SDS011;4509;51.522;9.910;2022-07-23T01:03:03;1.73;;;1.73;;
8948;SDS011;4509;51.522;9.910;2022-07-23T01:05:29;1.97;;;1.97;;
8948;SDS011;4509;51.522;9.910;2022-07-23T01:07:56;1.67;;;1.67;;
8948;SDS011;4509;51.522;9.910;2022-07-23T01:10:23;1.80;;;1.80;;
8948;SDS011;4509;51.522;9.910;2022-07-23T01:13:00;1.80;;;1.80;;
8948;SDS011;4509;51.522;9.910;2022-07-23T01:15:28;1.67;;;1.67;;
8948;SDS011;4509;51.522;9.910;2022-07-23T01:17:56;1.80;;;1.80;;
8948;SDS011;4509;51.522;9.910;2022-07-23T01:20:22;2.00;;;2.00;;
8948;SDS011;4509;51.522;9.910;2022-07-23T01:22:51;1.73;;;1.73;;
8948;SDS011;4509;51.522;9.910;2022-07-23T01:25:18;1.63;;;1.63;;
8948;SDS011;4509;51.522;9.910;2022-07-23T01:27:45;1.87;;;1.87;;
8948;SDS011;4509;51.522;9.910;2022-07-23T01:30:12;1.80;;;1.80;;
8948;SDS011;4509;51.522;9.910;2022-07-23T01:32:39;1.70;;;1.70;;
8948;SDS011;4509;51.522;9.910;2022-07-23T01:35:06;1.83;;;1.83;;
8948;SDS011;4509;51.522;9.910;2022-07-23T01:37:34;1.90;;;1.90;;
8948;SDS011;4509;51.522;9.910;2022-07-23T01:40:04;2.30;;;2.20;;
8948;SDS011;4509;51.522;9.910;2022-07-23T01:42:32;2.00;;;2.00;;
8948;SDS011;4509;51.522;9.910;2022-07-23T01:44:59;1.90;;;1.90;;
8948;SDS011;4509;51.522;9.910;2022-07-23T01:47:26;2.10;;;2.10;;
8948;SDS011;4509;51.522;9.910;2022-07-23T01:49:53;2.03;;;2.03;;
8948;SDS011;4509;51.522;9.910;2022-07-23T01:52:20;2.00;;;2.00;;
8948;SDS011;4509;51.522;9.910;2022-07-23T01:54:46;2.00;;;2.00;;
8948;SDS011;4509;51.522;9.910;2022-07-23T01:57:14;2.00;;;2.00;;
8948;SDS011;4509;51.522;9.910;2022-07-23T01:59:41;1.90;;;1.90;;
8948;SDS011;4509;51.522;9.910;2022-07-23T02:02:08;2.10;;;2.10;;
8948;SDS011;4509;51.522;9.910;2022-07-23T02:04:34;2.30;;;2.20;;
8948;SDS011;4509;51.522;9.910;2022-07-23T02:07:01;2.00;;;2.00;;
8948;SDS011;4509;51.522;9.910;2022-07-23T02:09:29;2.07;;;2.07;;
8948;SDS011;4509;51.522;9.910;2022-07-23T02:11:56;1.80;;;1.80;;
8948;SDS011;4509;51.522;9.910;2022-07-23T02:14:24;1.93;;;1.93;;
8948;SDS011;4509;51.522;9.910;2022-07-23T02:16:50;2.10;;;2.10;;
8948;SDS011;4509;51.522;9.910;2022-07-23T02:19:17;2.20;;;2.13;;
8948;SDS011;4509;51.522;9.910;2022-07-23T02:21:44;1.90;;;1.90;;
8948;SDS011;4509;51.522;9.910;2022-07-23T02:24:11;2.17;;;2.17;;
8948;SDS011;4509;51.522;9.910;2022-07-23T02:26:37;2.10;;;2.10;;
8948;SDS011;4509;51.522;9.910;2022-07-23T02:29:04;2.03;;;2.03;;
8948;SDS011;4509;51.522;9.910;2022-07-23T02:31:33;2.33;;;2.23;;
8948;SDS011;4509;51.522;9.910;2022-07-23T02:34:00;2.13;;;2.10;;
8948;SDS011;4509;51.522;9.910;2022-07-23T02:36:27;2.30;;;2.20;;
8948;SDS011;4509;51.522;9.910;2022-07-23T02:38:54;2.13;;;2.10;;
8948;SDS011;4509;51.522;9.910;2022-07-23T02:41:21;2.13;;;2.13;;
8948;SDS011;4509;51.522;9.910;2022-07-23T02:43:47;2.13;;;2.10;;
8948;SDS011;4509;51.522;9.910;2022-07-23T02:46:14;2.40;;;2.30;;
8948;SDS011;4509;51.522;9.910;2022-07-23T02:48:42;1.97;;;1.97;;
8948;SDS011;4509;51.522;9.910;2022-07-23T02:51:09;2.30;;;2.20;;
8948;SDS011;4509;51.522;9.910;2022-07-23T02:53:35;2.50;;;2.40;;
8948;SDS011;4509;51.522;9.910;2022-07-23T02:56:02;2.50;;;2.40;;
8948;SDS011;4509;51.522;9.910;2022-07-23T02:58:29;2.50;;;2.40;;
8948;SDS011;4509;51.522;9.910;2022-07-23T03:00:56;2.33;;;2.23;;
8948;SDS011;4509;51.522;9.910;2022-07-23T03:03:22;2.30;;;2.20;;
8948;SDS011;4509;51.522;9.910;2022-07-23T03:05:50;2.63;;;2.53;;
8948;SDS011;4509;51.522;9.910;2022-07-23T03:08:17;2.77;;;2.67;;
8948;SDS011;4509;51.522;9.910;2022-07-23T03:10:44;2.30;;;2.20;;
8948;SDS011;4509;51.522;9.910;2022-07-23T03:13:10;2.30;;;2.20;;
8948;SDS011;4509;51.522;9.910;2022-07-23T03:15:37;2.30;;;2.20;;
8948;SDS011;4509;51.522;9.910;2022-07-23T03:18:04;1.90;;;1.90;;
8948;SDS011;4509;51.522;9.910;2022-07-23T03:20:30;2.63;;;2.53;;
8948;SDS011;4509;51.522;9.910;2022-07-23T03:22:58;2.40;;;2.30;;
8948;SDS011;4509;51.522;9.910;2022-07-23T03:25:25;2.27;;;2.20;;
8948;SDS011;4509;51.522;9.910;2022-07-23T03:27:52;2.53;;;2.43;;
8948;SDS011;4509;51.522;9.910;2022-07-23T03:30:18;2.27;;;2.17;;
8948;SDS011;4509;51.522;9.910;2022-07-23T03:32:45;2.50;;;2.40;;
8948;SDS011;4509;51.522;9.910;2022-07-23T03:35:11;2.30;;;2.20;;
8948;SDS011;4509;51.522;9.910;2022-07-23T03:37:38;2.30;;;2.20;;
8948;SDS011;4509;51.522;9.910;2022-07-23T03:40:07;2.07;;;2.07;;
8948;SDS011;4509;51.522;9.910;2022-07-23T03:42:34;2.50;;;2.40;;
8948;SDS011;4509;51.522;9.910;2022-07-23T03:45:02;2.30;;;2.20;;
8948;SDS011;4509;51.522;9.910;2022-07-23T03:47:29;2.03;;;2.03;;
8948;SDS011;4509;51.522;9.910;2022-07-23T03:49:56;2.53;;;2.43;;
8948;SDS011;4509;51.522;9.910;2022-07-23T03:52:23;2.60;;;2.50;;
8948;SDS011;4509;51.522;9.910;2022-07-23T03:54:49;2.53;;;2.43;;
8948;SDS011;4509;51.522;9.910;2022-07-23T03:57:17;2.50;;;2.40;;
8948;SDS011;4509;51.522;9.910;2022-07-23T03:59:44;2.47;;;2.37;;
8948;SDS011;4509;51.522;9.910;2022-07-23T04:02:11;2.47;;;2.37;;
8948;SDS011;4509;51.522;9.910;2022-07-23T04:04:37;2.40;;;2.30;;
8948;SDS011;4509;51.522;9.910;2022-07-23T04:07:04;2.23;;;2.13;;
8948;SDS011;4509;51.522;9.910;2022-07-23T04:09:32;2.40;;;2.30;;
8948;SDS011;4509;51.522;9.910;2022-07-23T04:11:59;2.40;;;2.30;;
8948;SDS011;4509;51.522;9.910;2022-07-23T04:14:27;2.23;;;2.13;;
8948;SDS011;4509;51.522;9.910;2022-07-23T04:16:54;2.40;;;2.30;;
8948;SDS011;4509;51.522;9.910;2022-07-23T04:19:20;2.37;;;2.27;;
8948;SDS011;4509;51.522;9.910;2022-07-23T04:21:47;2.00;;;2.00;;
8948;SDS011;4509;51.522;9.910;2022-07-23T04:24:13;2.33;;;2.23;;
8948;SDS011;4509;51.522;9.910;2022-07-23T04:26:40;1.90;;;1.90;;
8948;SDS011;4509;51.522;9.910;2022-07-23T04:29:07;2.30;;;2.20;;
8948;SDS011;4509;51.522;9.910;2022-07-23T04:31:35;2.37;;;2.27;;
8948;SDS011;4509;51.522;9.910;2022-07-23T04:34:02;2.07;;;2.07;;
8948;SDS011;4509;51.522;9.910;2022-07-23T04:36:29;2.23;;;2.17;;
8948;SDS011;4509;51.522;9.910;2022-07-23T04:38:57;2.00;;;2.00;;
8948;SDS011;4509;51.522;9.910;2022-07-23T04:41:23;2.50;;;2.40;;
8948;SDS011;4509;51.522;9.910;2022-07-23T04:43:50;2.37;;;2.27;;
8948;SDS011;4509;51.522;9.910;2022-07-23T04:46:17;2.00;;;2.00;;
8948;SDS011;4509;51.522;9.910;2022-07-23T04:48:45;2.10;;;2.10;;
8948;SDS011;4509;51.522;9.910;2022-07-23T04:51:12;2.00;;;2.00;;
8948;SDS011;4509;51.522;9.910;2022-07-23T04:53:39;2.17;;;2.10;;
8948;SDS011;4509;51.522;9.910;2022-07-23T04:56:06;2.57;;;2.47;;
8948;SDS011;4509;51.522;9.910;2022-07-23T04:58:32;2.00;;;2.00;;
8948;SDS011;4509;51.522;9.910;2022-07-23T05:00:59;2.00;;;2.00;;
8948;SDS011;4509;51.522;9.910;2022-07-23T05:03:26;1.90;;;1.90;;
8948;SDS011;4509;51.522;9.910;2022-07-23T05:05:55;1.83;;;1.83;;
8948;SDS011;4509;51.522;9.910;2022-07-23T05:08:21;1.80;;;1.80;;
8948;SDS011;4509;51.522;9.910;2022-07-23T05:10:48;1.93;;;1.93;;
8948;SDS011;4509;51.522;9.910;2022-07-23T05:13:15;1.80;;;1.80;;
8948;SDS011;4509;51.522;9.910;2022-07-23T05:15:42;1.83;;;1.83;;
8948;SDS011;4509;51.522;9.910;2022-07-23T05:18:09;2.00;;;2.00;;
8948;SDS011;4509;51.522;9.910;2022-07-23T05:20:35;2.10;;;2.10;;
8948;SDS011;4509;51.522;9.910;2022-07-23T05:23:04;2.00;;;2.00;;
8948;SDS011;4509;51.522;9.910;2022-07-23T05:25:30;2.10;;;2.10;;
8948;SDS011;4509;51.522;9.910;2022-07-23T05:27:57;1.90;;;1.90;;
8948;SDS011;4509;51.522;9.910;2022-07-23T05:30:24;2.00;;;2.00;;
8948;SDS011;4509;51.522;9.910;2022-07-23T05:32:50;2.00;;;2.00;;
8948;SDS011;4509;51.522;9.910;2022-07-23T05:35:17;2.30;;;2.20;;
8948;SDS011;4509;51.522;9.910;2022-07-23T05:37:44;2.03;;;2.03;;
8948;SDS011;4509;51.522;9.910;2022-07-23T05:40:13;2.00;;;2.00;;
8948;SDS011;4509;51.522;9.910;2022-07-23T05:42:40;1.90;;;1.90;;
8948;SDS011;4509;51.522;9.910;2022-07-23T05:45:07;1.93;;;1.93;;
8948;SDS011;4509;51.522;9.910;2022-07-23T05:47:39;1.90;;;1.90;;
8948;SDS011;4509;51.522;9.910;2022-07-23T05:50:07;1.93;;;1.93;;
8948;SDS011;4509;51.522;9.910;2022-07-23T05:52:34;1.77;;;1.77;;
8948;SDS011;4509;51.522;9.910;2022-07-23T05:55:00;1.80;;;1.80;;
8948;SDS011;4509;51.522;9.910;2022-07-23T05:57:28;1.83;;;1.83;;
8948;SDS011;4509;51.522;9.910;2022-07-23T05:59:55;1.97;;;1.97;;
8948;SDS011;4509;51.522;9.910;2022-07-23T06:02:21;1.97;;;1.97;;
8948;SDS011;4509;51.522;9.910;2022-07-23T06:04:48;2.00;;;2.00;;
8948;SDS011;4509;51.522;9.910;2022-07-23T06:07:15;1.80;;;1.80;;
8948;SDS011;4509;51.522;9.910;2022-07-23T06:09:41;1.90;;;1.90;;
8948;SDS011;4509;51.522;9.910;2022-07-23T06:12:08;2.10;;;2.10;;
8948;SDS011;4509;51.522;9.910;2022-07-23T06:14:36;1.90;;;1.90;;
8948;SDS011;4509;51.522;9.910;2022-07-23T06:17:03;2.03;;;2.03;;
8948;SDS011;4509;51.522;9.910;2022-07-23T06:19:29;1.90;;;1.90;;
8948;SDS011;4509;51.522;9.910;2022-07-23T06:21:56;2.00;;;2.00;;
8948;SDS011;4509;51.522;9.910;2022-07-23T06:24:23;1.80;;;1.80;;
8948;SDS011;4509;51.522;9.910;2022-07-23T06:26:49;1.93;;;1.93;;
8948;SDS011;4509;51.522;9.910;2022-07-23T06:29:16;2.10;;;2.10;;
8948;SDS011;4509;51.522;9.910;2022-07-23T06:31:44;2.30;;;2.20;;
8948;SDS011;4509;51.522;9.910;2022-07-23T06:34:11;2.00;;;2.00;;
8948;SDS011;4509;51.522;9.910;2022-07-23T06:36:37;2.50;;;2.40;;
8948;SDS011;4509;51.522;9.910;2022-07-23T06:39:04;2.67;;;2.57;;
8948;SDS011;4509;51.522;9.910;2022-07-23T06:41:31;2.77;;;2.67;;
8948;SDS011;4509;51.522;9.910;2022-07-23T06:43:57;2.97;;;2.87;;
8948;SDS011;4509;51.522;9.910;2022-07-23T06:46:24;2.77;;;2.67;;
8948;SDS011;4509;51.522;9.910;2022-07-23T06:48:52;2.83;;;2.73;;
8948;SDS011;4509;51.522;9.910;2022-07-23T06:51:19;2.80;;;2.70;;
8948;SDS011;4509;51.522;9.910;2022-07-23T06:53:46;2.77;;;2.67;;
8948;SDS011;4509;51.522;9.910;2022-07-23T06:56:12;2.50;;;2.40;;
8948;SDS011;4509;51.522;9.910;2022-07-23T06:58:39;2.63;;;2.53;;
8948;SDS011;4509;51.522;9.910;2022-07-23T07:01:06;2.83;;;2.73;;
8948;SDS011;4509;51.522;9.910;2022-07-23T07:03:32;3.07;;;2.97;;
8948;SDS011;4509;51.522;9.910;2022-07-23T07:06:00;3.00;;;2.90;;
8948;SDS011;4509;51.522;9.910;2022-07-23T07:08:27;3.07;;;2.97;;
8948;SDS011;4509;51.522;9.910;2022-07-23T07:10:54;3.17;;;3.07;;
8948;SDS011;4509;51.522;9.910;2022-07-23T07:13:20;3.47;;;3.37;;
8948;SDS011;4509;51.522;9.910;2022-07-23T07:15:47;4.00;;;3.90;;
8948;SDS011;4509;51.522;9.910;2022-07-23T07:18:14;4.17;;;4.00;;
8948;SDS011;4509;51.522;9.910;2022-07-23T07:20:41;4.03;;;3.93;;
8948;SDS011;4509;51.522;9.910;2022-07-23T07:23:09;3.87;;;3.77;;
8948;SDS011;4509;51.522;9.910;2022-07-23T07:25:35;4.13;;;4.03;;
8948;SDS011;4509;51.522;9.910;2022-07-23T07:28:02;4.43;;;4.23;;
8948;SDS011;4509;51.522;9.910;2022-07-23T07:30:29;4.67;;;4.47;;
8948;SDS011;4509;51.522;9.910;2022-07-23T07:32:56;4.03;;;3.93;;
8948;SDS011;4509;51.522;9.910;2022-07-23T07:35:23;4.90;;;4.70;;
8948;SDS011;4509;51.522;9.910;2022-07-23T07:37:50;4.80;;;4.60;;
8948;SDS011;4509;51.522;9.910;2022-07-23T07:40:18;4.57;;;4.37;;
8948;SDS011;4509;51.522;9.910;2022-07-23T07:42:45;5.00;;;4.80;;
8948;SDS011;4509;51.522;9.910;2022-07-23T07:45:12;3.97;;;3.88;;
8948;SDS011;4509;51.522;9.910;2022-07-23T07:47:40;3.95;;;3.85;;
8948;SDS011;4509;51.522;9.910;2022-07-23T07:50:07;3.85;;;3.75;;
8948;SDS011;4509;51.522;9.910;2022-07-23T07:52:34;3.78;;;3.67;;
8948;SDS011;4509;51.522;9.910;2022-07-23T07:55:02;3.80;;;3.70;;
8948;SDS011;4509;51.522;9.910;2022-07-23T07:57:30;3.17;;;3.08;;
8948;SDS011;4509;51.522;9.910;2022-07-23T07:59:57;2.90;;;2.80;;
8948;SDS011;4509;51.522;9.910;2022-07-23T08:02:24;2.65;;;2.55;;
8948;SDS011;4509;51.522;9.910;2022-07-23T08:04:51;2.30;;;2.20;;
8948;SDS011;4509;51.522;9.910;2022-07-23T08:07:18;2.35;;;2.25;;
8948;SDS011;4509;51.522;9.910;2022-07-23T08:09:44;2.47;;;2.38;;
8948;SDS011;4509;51.522;9.910;2022-07-23T08:12:11;2.40;;;2.30;;
8948;SDS011;4509;51.522;9.910;2022-07-23T08:14:39;2.45;;;2.35;;
8948;SDS011;4509;51.522;9.910;2022-07-23T08:17:06;2.33;;;2.22;;
8948;SDS011;4509;51.522;9.910;2022-07-23T08:19:32;2.58;;;2.47;;
8948;SDS011;4509;51.522;9.910;2022-07-23T08:21:59;2.90;;;2.80;;
8948;SDS011;4509;51.522;9.910;2022-07-23T08:24:26;2.55;;;2.45;;
8948;SDS011;4509;51.522;9.910;2022-07-23T08:26:52;2.60;;;2.50;;
8948;SDS011;4509;51.522;9.910;2022-07-23T08:29:19;2.47;;;2.38;;
8948;SDS011;4509;51.522;9.910;2022-07-23T08:31:47;2.28;;;2.17;;
8948;SDS011;4509;51.522;9.910;2022-07-23T08:34:14;2.15;;;2.10;;
8948;SDS011;4509;51.522;9.910;2022-07-23T08:36:40;2.08;;;2.08;;
8948;SDS011;4509;51.522;9.910;2022-07-23T08:39:07;2.00;;;2.00;;
8948;SDS011;4509;51.522;9.910;2022-07-23T08:41:34;2.40;;;2.30;;
8948;SDS011;4509;51.522;9.910;2022-07-23T08:44:01;2.42;;;2.33;;
8948;SDS011;4509;51.522;9.910;2022-07-23T08:46:28;2.53;;;2.42;;
8948;SDS011;4509;51.522;9.910;2022-07-23T08:48:56;2.70;;;2.60;;
8948;SDS011;4509;51.522;9.910;2022-07-23T08:51:25;3.13;;;3.03;;
8948;SDS011;4509;51.522;9.910;2022-07-23T08:53:53;3.00;;;2.90;;
8948;SDS011;4509;51.522;9.910;2022-07-23T08:56:22;2.92;;;2.83;;
8948;SDS011;4509;51.522;9.910;2022-07-23T08:58:50;3.15;;;3.05;;
8948;SDS011;4509;51.522;9.910;2022-07-23T09:01:19;3.08;;;2.97;;
8948;SDS011;4509;51.522;9.910;2022-07-23T09:03:46;3.25;;;3.15;;
8948;SDS011;4509;51.522;9.910;2022-07-23T09:06:14;3.70;;;3.60;;
8948;SDS011;4509;51.522;9.910;2022-07-23T09:08:41;3.80;;;3.70;;
8948;SDS011;4509;51.522;9.910;2022-07-23T09:11:10;3.42;;;3.33;;
8948;SDS011;4509;51.522;9.910;2022-07-23T09:13:39;3.53;;;3.42;;
8948;SDS011;4509;51.522;9.910;2022-07-23T09:16:08;3.55;;;3.45;;
8948;SDS011;4509;51.522;9.910;2022-07-23T09:18:39;3.75;;;3.65;;
8948;SDS011;4509;51.522;9.910;2022-07-23T09:21:13;3.85;;;3.75;;
8948;SDS011;4509;51.522;9.910;2022-07-23T09:23:44;3.90;;;3.80;;
8948;SDS011;4509;51.522;9.910;2022-07-23T09:29:05;3.58;;;3.47;;
8948;SDS011;4509;51.522;9.910;2022-07-23T09:31:41;3.75;;;3.65;;
8948;SDS011;4509;51.522;9.910;2022-07-23T09:34:11;4.55;;;4.35;;
8948;SDS011;4509;51.522;9.910;2022-07-23T09:36:41;4.85;;;4.65;;
8948;SDS011;4509;51.522;9.910;2022-07-23T09:39:09;4.55;;;4.35;;
8948;SDS011;4509;51.522;9.910;2022-07-23T09:41:41;4.63;;;4.43;;
8948;SDS011;4509;51.522;9.910;2022-07-23T09:44:10;5.00;;;4.80;;
8948;SDS011;4509;51.522;9.910;2022-07-23T09:46:39;4.30;;;4.15;;
8948;SDS011;4509;51.522;9.910;2022-07-23T09:49:10;4.85;;;4.65;;
8948;SDS011;4509;51.522;9.910;2022-07-23T09:51:47;5.10;;;4.90;;
8948;SDS011;4509;51.522;9.910;2022-07-23T09:54:23;4.85;;;4.65;;
8948;SDS011;4509;51.522;9.910;2022-07-23T09:56:53;4.50;;;4.30;;
8948;SDS011;4509;51.522;9.910;2022-07-23T09:59:22;5.15;;;4.95;;
8948;SDS011;4509;51.522;9.910;2022-07-23T10:01:52;4.53;;;4.32;;
8948;SDS011;4509;51.522;9.910;2022-07-23T10:04:21;4.13;;;4.03;;
8948;SDS011;4509;51.522;9.910;2022-07-23T10:06:51;3.72;;;3.63;;
8948;SDS011;4509;51.522;9.910;2022-07-23T10:09:21;4.10;;;4.00;;
8948;SDS011;4509;51.522;9.910;2022-07-23T10:11:51;3.90;;;3.80;;
8948;SDS011;4509;51.522;9.910;2022-07-23T10:14:37;3.35;;;3.25;;
8948;SDS011;4509;51.522;9.910;2022-07-23T10:17:05;3.45;;;3.35;;
8948;SDS011;4509;51.522;9.910;2022-07-23T10:19:32;3.53;;;3.42;;
8948;SDS011;4509;51.522;9.910;2022-07-23T10:22:04;3.25;;;3.15;;
8948;SDS011;4509;51.522;9.910;2022-07-23T10:24:48;3.28;;;3.17;;
8948;SDS011;4509;51.522;9.910;2022-07-23T10:27:34;3.70;;;3.60;;
8948;SDS011;4509;51.522;9.910;2022-07-23T10:30:15;3.90;;;3.80;;
8948;SDS011;4509;51.522;9.910;2022-07-23T10:32:49;4.05;;;3.95;;
8948;SDS011;4509;51.522;9.910;2022-07-23T10:35:25;4.00;;;3.90;;
8948;SDS011;4509;51.522;9.910;2022-07-23T10:38:01;3.53;;;3.42;;
8948;SDS011;4509;51.522;9.910;2022-07-23T10:40:34;3.53;;;3.42;;
8948;SDS011;4509;51.522;9.910;2022-07-23T10:43:01;3.40;;;3.30;;
8948;SDS011;4509;51.522;9.910;2022-07-23T10:45:39;3.45;;;3.35;;
8948;SDS011;4509;51.522;9.910;2022-07-23T10:48:13;3.03;;;2.92;;
8948;SDS011;4509;51.522;9.910;2022-07-23T10:50:41;2.95;;;2.85;;
8948;SDS011;4509;51.522;9.910;2022-07-23T10:53:14;2.75;;;2.65;;
8948;SDS011;4509;51.522;9.910;2022-07-23T10:55:44;2.75;;;2.65;;
8948;SDS011;4509;51.522;9.910;2022-07-23T10:58:20;2.47;;;2.38;;
8948;SDS011;4509;51.522;9.910;2022-07-23T11:00:48;2.53;;;2.42;;
8948;SDS011;4509;51.522;9.910;2022-07-23T11:06:01;2.45;;;2.35;;
8948;SDS011;4509;51.522;9.910;2022-07-23T11:08:30;2.53;;;2.42;;
8948;SDS011;4509;51.522;9.910;2022-07-23T11:16:15;2.45;;;2.35;;
8948;SDS011;4509;51.522;9.910;2022-07-23T11:18:59;2.55;;;2.45;;
8948;SDS011;4509;51.522;9.910;2022-07-23T11:21:49;2.80;;;2.70;;
8948;SDS011;4509;51.522;9.910;2022-07-23T11:24:22;3.10;;;3.00;;
8948;SDS011;4509;51.522;9.910;2022-07-23T11:27:00;2.95;;;2.85;;
8948;SDS011;4509;51.522;9.910;2022-07-23T11:29:43;3.45;;;3.35;;
8948;SDS011;4509;51.522;9.910;2022-07-23T11:32:30;4.03;;;3.92;;
8948;SDS011;4509;51.522;9.910;2022-07-23T11:35:03;3.58;;;3.47;;
8948;SDS011;4509;51.522;9.910;2022-07-23T11:37:54;3.90;;;3.80;;
8948;SDS011;4509;51.522;9.910;2022-07-23T11:40:31;3.95;;;3.85;;
8948;SDS011;4509;51.522;9.910;2022-07-23T11:43:01;4.55;;;4.35;;
8948;SDS011;4509;51.522;9.910;2022-07-23T11:45:30;4.70;;;4.50;;
8948;SDS011;4509;51.522;9.910;2022-07-23T11:47:59;6.10;;;5.90;;
8948;SDS011;4509;51.522;9.910;2022-07-23T11:50:26;5.47;;;5.28;;
8948;SDS011;4509;51.522;9.910;2022-07-23T11:52:53;4.95;;;4.75;;
8948;SDS011;4509;51.522;9.910;2022-07-23T11:55:21;4.88;;;4.68;;
8948;SDS011;4509;51.522;9.910;2022-07-23T11:57:50;4.32;;;4.15;;
8948;SDS011;4509;51.522;9.910;2022-07-23T12:00:21;4.30;;;4.15;;
8948;SDS011;4509;51.522;9.910;2022-07-23T12:02:53;4.47;;;4.28;;
8948;SDS011;4509;51.522;9.910;2022-07-23T12:05:26;4.38;;;4.20;;
8948;SDS011;4509;51.522;9.910;2022-07-23T12:07:55;4.47;;;4.28;;
8948;SDS011;4509;51.522;9.910;2022-07-23T12:10:24;3.97;;;3.88;;
8948;SDS011;4509;51.522;9.910;2022-07-23T12:12:59;3.95;;;3.85;;
8948;SDS011;4509;51.522;9.910;2022-07-23T12:15:32;4.03;;;3.92;;
8948;SDS011;4509;51.522;9.910;2022-07-23T12:18:03;4.85;;;4.65;;
8948;SDS011;4509;51.522;9.910;2022-07-23T12:20:42;4.65;;;4.45;;
8948;SDS011;4509;51.522;9.910;2022-07-23T12:23:12;4.25;;;4.13;;
8948;SDS011;4509;51.522;9.910;2022-07-23T12:26:02;4.63;;;4.43;;
8948;SDS011;4509;51.522;9.910;2022-07-23T12:28:37;4.75;;;4.55;;
8948;SDS011;4509;51.522;9.910;2022-07-23T12:31:28;4.20;;;4.07;;
8948;SDS011;4509;51.522;9.910;2022-07-23T12:37:27;4.72;;;4.53;;
8948;SDS011;4509;51.522;9.910;2022-07-23T12:42:56;4.05;;;3.95;;
8948;SDS011;4509;51.522;9.910;2022-07-23T12:45:26;3.83;;;3.72;;
8948;SDS011;4509;51.522;9.910;2022-07-23T12:48:08;3.10;;;3.00;;
8948;SDS011;4509;51.522;9.910;2022-07-23T12:50:43;2.65;;;2.55;;
8948;SDS011;4509;51.522;9.910;2022-07-23T12:53:20;2.80;;;2.70;;
8948;SDS011;4509;51.522;9.910;2022-07-23T12:56:01;2.92;;;2.83;;
8948;SDS011;4509;51.522;9.910;2022-07-23T12:58:45;3.40;;;3.30;;
8948;SDS011;4509;51.522;9.910;2022-07-23T13:01:29;3.38;;;3.28;;
8948;SDS011;4509;51.522;9.910;2022-07-23T13:04:01;3.03;;;2.92;;
8948;SDS011;4509;51.522;9.910;2022-07-23T13:06:44;3.00;;;2.90;;
8948;SDS011;4509;51.522;9.910;2022-07-23T13:09:14;3.05;;;2.95;;
8948;SDS011;4509;51.522;9.910;2022-07-23T13:11:45;3.50;;;3.40;;
8948;SDS011;4509;51.522;9.910;2022-07-23T13:14:13;3.10;;;3.00;;
8948;SDS011;4509;51.522;9.910;2022-07-23T13:16:50;3.30;;;3.20;;
8948;SDS011;4509;51.522;9.910;2022-07-23T13:19:21;2.95;;;2.85;;
8948;SDS011;4509;51.522;9.910;2022-07-23T13:21:48;3.50;;;3.40;;
8948;SDS011;4509;51.522;9.910;2022-07-23T13:24:15;3.67;;;3.58;;
8948;SDS011;4509;51.522;9.910;2022-07-23T13:26:42;3.55;;;3.45;;
8948;SDS011;4509;51.522;9.910;2022-07-23T13:29:20;3.80;;;3.70;;
8948;SDS011;4509;51.522;9.910;2022-07-23T13:32:28;3.75;;;3.65;;
8948;SDS011;4509;51.522;9.910;2022-07-23T13:34:57;4.07;;;3.95;;
8948;SDS011;4509;51.522;9.910;2022-07-23T13:37:33;3.90;;;3.80;;
8948;SDS011;4509;51.522;9.910;2022-07-23T13:40:00;4.00;;;3.90;;
8948;SDS011;4509;51.522;9.910;2022-07-23T13:45:15;4.07;;;3.97;;
8948;SDS011;4509;51.522;9.910;2022-07-23T13:47:46;3.63;;;3.53;;
8948;SDS011;4509;51.522;9.910;2022-07-23T13:50:31;2.65;;;2.55;;
8948;SDS011;4509;51.522;9.910;2022-07-23T13:53:26;3.00;;;2.90;;
8948;SDS011;4509;51.522;9.910;2022-07-23T13:56:12;3.22;;;3.13;;
8948;SDS011;4509;51.522;9.910;2022-07-23T13:59:10;4.00;;;3.90;;
8948;SDS011;4509;51.522;9.910;2022-07-23T14:02:04;3.88;;;3.75;;
8948;SDS011;4509;51.522;9.910;2022-07-23T14:04:36;3.95;;;3.85;;
8948;SDS011;4509;51.522;9.910;2022-07-23T14:07:25;3.90;;;3.80;;
8948;SDS011;4509;51.522;9.910;2022-07-23T14:09:51;4.43;;;4.25;;
8948;SDS011;4509;51.522;9.910;2022-07-23T14:12:21;4.38;;;4.22;;
8948;SDS011;4509;51.522;9.910;2022-07-23T14:14:50;3.60;;;3.50;;
8948;SDS011;4509;51.522;9.910;2022-07-23T14:17:17;3.63;;;3.53;;
8948;SDS011;4509;51.522;9.910;2022-07-23T14:19:45;4.07;;;3.97;;
8948;SDS011;4509;51.522;9.910;2022-07-23T14:22:18;4.18;;;4.07;;
8948;SDS011;4509;51.522;9.910;2022-07-23T14:24:44;3.83;;;3.72;;
8948;SDS011;4509;51.522;9.910;2022-07-23T14:27:20;4.75;;;4.55;;
8948;SDS011;4509;51.522;9.910;2022-07-23T14:29:50;5.15;;;4.95;;
8948;SDS011;4509;51.522;9.910;2022-07-23T14:32:34;6.45;;;6.22;;
8948;SDS011;4509;51.522;9.910;2022-07-23T14:35:03;7.40;;;7.10;;
8948;SDS011;4509;51.522;9.910;2022-07-23T14:37:31;6.00;;;5.80;;
8948;SDS011;4509;51.522;9.910;2022-07-23T14:39:58;6.18;;;5.97;;
8948;SDS011;4509;51.522;9.910;2022-07-23T14:42:26;5.25;;;5.05;;
8948;SDS011;4509;51.522;9.910;2022-07-23T14:44:52;5.70;;;5.50;;
8948;SDS011;4509;51.522;9.910;2022-07-23T14:47:28;5.93;;;5.72;;
8948;SDS011;4509;51.522;9.910;2022-07-23T14:49:54;5.55;;;5.35;;
8948;SDS011;4509;51.522;9.910;2022-07-23T14:52:22;5.30;;;5.10;;
8948;SDS011;4509;51.522;9.910;2022-07-23T14:54:49;5.50;;;5.30;;
8948;SDS011;4509;51.522;9.910;2022-07-23T14:57:16;5.10;;;4.90;;
8948;SDS011;4509;51.522;9.910;2022-07-23T14:59:43;5.30;;;5.10;;
8948;SDS011;4509;51.522;9.910;2022-07-23T15:02:10;4.97;;;4.78;;
8948;SDS011;4509;51.522;9.910;2022-07-23T15:04:36;5.03;;;4.82;;
8948;SDS011;4509;51.522;9.910;2022-07-23T15:07:04;4.50;;;4.30;;
8948;SDS011;4509;51.522;9.910;2022-07-23T15:09:32;5.15;;;4.95;;
8948;SDS011;4509;51.522;9.910;2022-07-23T15:11:59;4.28;;;4.13;;
8948;SDS011;4509;51.522;9.910;2022-07-23T15:14:26;3.92;;;3.83;;
8948;SDS011;4509;51.522;9.910;2022-07-23T15:16:54;4.90;;;4.70;;
8948;SDS011;4509;51.522;9.910;2022-07-23T15:19:27;5.00;;;4.80;;
8948;SDS011;4509;51.522;9.910;2022-07-23T15:21:54;5.38;;;5.18;;
8948;SDS011;4509;51.522;9.910;2022-07-23T15:24:20;5.22;;;5.03;;
8948;SDS011;4509;51.522;9.910;2022-07-23T15:26:49;5.13;;;4.93;;
8948;SDS011;4509;51.522;9.910;2022-07-23T15:29:17;4.47;;;4.28;;
8948;SDS011;4509;51.522;9.910;2022-07-23T15:31:43;5.38;;;5.18;;
8948;SDS011;4509;51.522;9.910;2022-07-23T15:34:11;4.80;;;4.60;;
8948;SDS011;4509;51.522;9.910;2022-07-23T15:36:38;3.95;;;3.85;;
8948;SDS011;4509;51.522;9.910;2022-07-23T15:41:59;4.93;;;4.72;;
8948;SDS011;4509;51.522;9.910;2022-07-23T15:44:25;4.63;;;4.43;;
8948;SDS011;4509;51.522;9.910;2022-07-23T15:46:55;5.10;;;4.90;;
8948;SDS011;4509;51.522;9.910;2022-07-23T15:49:23;6.78;;;6.47;;
8948;SDS011;4509;51.522;9.910;2022-07-23T15:51:50;7.90;;;7.60;;